ミラノ/マルペンサ の空港の天気 - METARとTAF

ミラノ・マルペンサ国際空港 ( LIMC / MXP ) - イタリア ミラノ
飛行場実況気象(Metar)
観測時間04/26 13:20 CEST (04/26 11:20 UTC)
風向・風速南 4m/s
視程10km以上
天気現象
なし
気温23℃
湿度53%
気圧1011hPa
METARLIMC 261120Z 19007KT 140V230 CAVOK 23/13 Q1011 NOSIG
過去の天気等 Google飛行場航空写真 Wunderground天気予報

過去48時間のMETAR

飛行場予報(TAF)
発表時間: 4/26 07:00 CEST (4/26 05:00 UTC)
予報対象時間: 26日8時 CEST ~ 27日14時 CEST
風向・風速不定 3m/s
視程10km以上
なし
TAF LIMC 260500Z 2606/2712 VRB05KT CAVOK